Time;durP1;ratioP1;P1;durP2;ratioP2;P2;SDS_P1;SDS_P2;PMS_P1;PMS_P2;Temp;Humidity;BMP_temperature;BMP_pressure;BME280_temperature;BME280_humidity;BME280_pressure;Samples;Min_cycle;Max_cycle;Signal;HPM_P1;HPM_P2
2023/10/20 00:00:37;;;;;;;45.30;31.70;;;;;;;;;;104228;1292;546445;-73
2023/10/20 00:04:16;;;;;;;47.00;31.50;;;;;;;;;;103724;1291;544906;-77
2023/10/20 00:07:53;;;;;;;65.60;35.40;;;;;;;;;;103698;1290;544859;-81
2023/10/20 00:11:29;;;;;;;56.80;33.00;;;;;;;;;;103548;1291;545012;-74
2023/10/20 00:15:13;;;;;;;49.00;32.10;;;;;;;;;;103884;1288;545019;-85
2023/10/20 00:18:46;;;;;;;38.50;29.30;;;;;;;;;;103690;1292;545014;-74
2023/10/20 00:22:22;;;;;;;41.30;29.50;;;;;;;;;;103824;1290;544811;-81
2023/10/20 00:25:59;;;;;;;57.60;32.60;;;;;;;;;;104039;1292;544923;-75
2023/10/20 00:29:37;;;;;;;79.50;33.80;;;;;;;;;;103803;1293;544878;-76
2023/10/20 00:33:15;;;;;;;66.50;33.80;;;;;;;;;;103819;1291;544964;-73
2023/10/20 00:36:52;;;;;;;38.60;30.30;;;;;;;;;;103519;1298;544991;-74
2023/10/20 00:40:36;;;;;;;36.00;28.90;;;;;;;;;;103722;1291;547772;-73
2023/10/20 00:44:07;;;;;;;38.70;30.70;;;;;;;;;;103828;1294;544928;-73
2023/10/20 00:47:46;;;;;;;44.10;31.80;;;;;;;;;;103823;1292;545169;-74
2023/10/20 00:51:24;;;;;;;53.10;32.90;;;;;;;;;;103611;1298;545532;-73
2023/10/20 00:54:59;;;;;;;47.70;32.20;;;;;;;;;;103739;1291;545324;-74
2023/10/20 00:58:37;;;;;;;40.20;31.60;;;;;;;;;;103732;1289;544967;-74
2023/10/20 01:02:14;;;;;;;49.10;31.10;;;;;;;;;;103761;1292;545378;-74
2023/10/20 01:05:51;;;;;;;45.70;31.60;;;;;;;;;;103370;1297;544994;-75
2023/10/20 01:09:35;;;;;;;42.00;29.80;;;;;;;;;;103488;1292;548241;-74
2023/10/20 01:13:08;;;;;;;51.50;32.90;;;;;;;;;;103752;1289;545886;-74
2023/10/20 01:16:44;;;;;;;53.40;33.30;;;;;;;;;;103766;1304;545108;-74
2023/10/20 01:20:23;;;;;;;49.90;32.40;;;;;;;;;;103692;1293;545539;-74
2023/10/20 01:24:02;;;;;;;48.20;31.80;;;;;;;;;;103680;1289;544790;-74
2023/10/20 01:27:38;;;;;;;44.20;30.70;;;;;;;;;;103766;1292;545590;-73
2023/10/20 01:31:14;;;;;;;49.80;32.10;;;;;;;;;;104297;1285;545726;-74
2023/10/20 01:34:53;;;;;;;65.30;46.50;;;;;;;;;;103761;1288;545379;-74
2023/10/20 01:38:29;;;;;;;115.10;80.50;;;;;;;;;;103671;1288;545353;-74
2023/10/20 01:42:07;;;;;;;84.70;55.50;;;;;;;;;;103728;1295;544847;-73
2023/10/20 01:45:44;;;;;;;78.30;43.50;;;;;;;;;;103545;1294;544807;-73
2023/10/20 01:49:21;;;;;;;54.30;36.30;;;;;;;;;;103669;1292;545402;-75
2023/10/20 01:52:59;;;;;;;46.30;29.30;;;;;;;;;;104523;1282;545818;-73
2023/10/20 01:56:36;;;;;;;43.10;27.20;;;;;;;;;;103852;1294;545044;-83
2023/10/20 02:00:16;;;;;;;50.00;28.20;;;;;;;;;;103655;1292;544983;-73
2023/10/20 02:03:51;;;;;;;53.00;28.80;;;;;;;;;;104589;1285;545913;-82
2023/10/20 02:07:28;;;;;;;39.80;27.00;;;;;;;;;;103745;1291;545440;-73
2023/10/20 02:11:08;;;;;;;41.10;27.10;;;;;;;;;;103703;1292;544733;-77
2023/10/20 02:14:44;;;;;;;39.10;26.60;;;;;;;;;;103805;1288;544849;-73
2023/10/20 02:18:21;;;;;;;49.30;28.40;;;;;;;;;;103710;1293;545541;-73
2023/10/20 02:22:01;;;;;;;49.90;28.60;;;;;;;;;;103506;1294;545886;-74
2023/10/20 02:25:36;;;;;;;47.00;27.90;;;;;;;;;;103792;1292;545698;-85
2023/10/20 02:29:14;;;;;;;42.10;26.10;;;;;;;;;;103604;1298;544778;-82
2023/10/20 02:32:51;;;;;;;40.60;25.30;;;;;;;;;;103911;1288;544661;-73
2023/10/20 02:36:30;;;;;;;43.50;27.50;;;;;;;;;;103597;1290;544783;-74
2023/10/20 02:40:06;;;;;;;37.20;26.00;;;;;;;;;;104367;1283;545331;-74
2023/10/20 02:43:43;;;;;;;38.40;26.10;;;;;;;;;;103735;1295;544749;-80
2023/10/20 02:47:20;;;;;;;38.40;25.30;;;;;;;;;;103756;1289;544723;-73
2023/10/20 02:50:54;;;;;;;35.50;25.20;;;;;;;;;;103791;1289;545489;-75
2023/10/20 02:54:35;;;;;;;31.30;24.60;;;;;;;;;;103725;1289;544617;-82
2023/10/20 02:58:14;;;;;;;37.50;25.60;;;;;;;;;;103621;1294;545558;-75
2023/10/20 03:01:50;;;;;;;34.70;24.60;;;;;;;;;;103816;1289;545574;-73
2023/10/20 03:05:29;;;;;;;32.20;24.00;;;;;;;;;;103596;1293;545116;-73
2023/10/20 03:09:05;;;;;;;33.70;23.70;;;;;;;;;;103701;1292;546670;-84
2023/10/20 03:12:43;;;;;;;33.70;25.30;;;;;;;;;;103613;1289;545500;-73
2023/10/20 03:16:21;;;;;;;39.20;26.00;;;;;;;;;;103690;1290;545353;-74
2023/10/20 03:19:58;;;;;;;32.70;24.30;;;;;;;;;;103795;1289;544983;-74
2023/10/20 03:23:36;;;;;;;37.20;26.00;;;;;;;;;;104650;1279;544932;-73
2023/10/20 03:27:13;;;;;;;35.80;24.70;;;;;;;;;;104041;1289;545571;-74
2023/10/20 03:30:50;;;;;;;35.70;25.70;;;;;;;;;;104528;1283;545488;-79
2023/10/20 03:34:27;;;;;;;36.40;26.70;;;;;;;;;;103808;1289;544966;-72
2023/10/20 03:38:06;;;;;;;37.10;26.70;;;;;;;;;;104469;1286;544825;-73
2023/10/20 03:41:42;;;;;;;39.80;26.60;;;;;;;;;;103912;1289;545447;-74
2023/10/20 03:45:16;;;;;;;36.80;26.50;;;;;;;;;;103946;1293;545446;-88
2023/10/20 03:48:59;;;;;;;38.20;26.20;;;;;;;;;;103479;1294;545872;-78
2023/10/20 03:52:36;;;;;;;39.90;26.70;;;;;;;;;;104084;1288;544818;-76
2023/10/20 03:56:18;;;;;;;40.70;27.30;;;;;;;;;;103740;1289;545769;-72
2023/10/20 03:59:52;;;;;;;37.00;26.30;;;;;;;;;;104186;1286;545420;-73
2023/10/20 04:03:33;;;;;;;46.10;28.20;;;;;;;;;;103764;1292;545119;-73
2023/10/20 04:07:07;;;;;;;37.30;26.70;;;;;;;;;;103891;1290;545132;-86
2023/10/20 04:10:44;;;;;;;37.00;26.50;;;;;;;;;;103855;1291;544977;-72
2023/10/20 04:14:21;;;;;;;37.70;26.80;;;;;;;;;;103553;1297;544968;-73
2023/10/20 04:17:59;;;;;;;39.90;27.10;;;;;;;;;;103868;1289;544788;-74
2023/10/20 04:21:45;;;;;;;57.90;29.60;;;;;;;;;;103491;1291;548996;-72
2023/10/20 04:25:15;;;;;;;46.80;28.70;;;;;;;;;;103642;1291;545485;-74
2023/10/20 04:29:07;;;;;;;45.80;27.90;;;;;;;;;;103603;1298;544969;-73
2023/10/20 04:51:28;;;;;;;56.20;30.80;;;;;;;;;;103796;1294;545525;-73
2023/10/20 04:54:23;;;;;;;55.40;32.00;;;;;;;;;;103532;1294;545473;-74
2023/10/20 04:58:04;;;;;;;53.90;31.10;;;;;;;;;;103796;1289;544946;-74
2023/10/20 05:01:40;;;;;;;67.80;33.10;;;;;;;;;;103806;1292;544929;-73
2023/10/20 05:05:43;;;;;;;51.60;32.20;;;;;;;;;;103856;1302;545645;-74
2023/10/20 05:08:41;;;;;;;61.50;31.40;;;;;;;;;;103737;1292;545948;-74
2023/10/20 05:12:20;;;;;;;48.90;30.70;;;;;;;;;;103787;1291;544825;-72
2023/10/20 05:15:58;;;;;;;48.10;30.80;;;;;;;;;;103999;1292;546264;-73
2023/10/20 05:19:36;;;;;;;43.60;29.30;;;;;;;;;;103903;1289;545068;-73
2023/10/20 05:23:16;;;;;;;46.50;28.90;;;;;;;;;;103497;1298;545059;-72
2023/10/20 05:26:54;;;;;;;53.60;30.40;;;;;;;;;;104051;1291;545644;-73
2023/10/20 05:30:27;;;;;;;63.30;31.50;;;;;;;;;;103480;1294;545287;-73
2023/10/20 05:34:06;;;;;;;46.10;29.20;;;;;;;;;;103821;1291;544971;-72
2023/10/20 05:37:43;;;;;;;49.70;28.00;;;;;;;;;;103929;1289;544612;-74
2023/10/20 05:41:20;;;;;;;53.20;28.00;;;;;;;;;;103882;1292;544853;-73
2023/10/20 05:45:10;;;;;;;51.10;27.40;;;;;;;;;;103661;1294;544949;-78
2023/10/20 05:48:36;;;;;;;43.40;26.20;;;;;;;;;;104004;1289;545510;-72
2023/10/20 05:52:21;;;;;;;53.60;26.90;;;;;;;;;;103615;1291;547977;-74
2023/10/20 05:55:50;;;;;;;45.70;26.80;;;;;;;;;;103771;1292;545257;-74
2023/10/20 05:59:28;;;;;;;45.40;26.40;;;;;;;;;;103478;1294;544774;-73
2023/10/20 06:03:06;;;;;;;46.00;27.50;;;;;;;;;;103801;1291;545608;-74
2023/10/20 06:06:43;;;;;;;40.90;26.60;;;;;;;;;;103837;1301;544852;-73
2023/10/20 06:10:23;;;;;;;56.00;27.10;;;;;;;;;;103708;1289;544990;-76
2023/10/20 06:13:57;;;;;;;42.30;26.80;;;;;;;;;;103847;1288;545621;-74
2023/10/20 06:17:35;;;;;;;46.00;26.00;;;;;;;;;;103706;1289;544955;-73
2023/10/20 06:21:22;;;;;;;57.80;28.60;;;;;;;;;;103742;1292;544897;-77
2023/10/20 06:24:50;;;;;;;51.10;28.00;;;;;;;;;;103622;1295;544784;-73
2023/10/20 06:28:24;;;;;;;45.30;27.50;;;;;;;;;;103760;1292;544735;-73
2023/10/20 06:35:52;;;;;;;50.10;28.00;;;;;;;;;;103553;1294;545662;-84
2023/10/20 06:39:20;;;;;;;54.70;28.40;;;;;;;;;;103795;1291;544817;-73
2023/10/20 06:42:58;;;;;;;49.80;26.40;;;;;;;;;;103888;1290;545028;-73
2023/10/20 06:46:35;;;;;;;51.40;26.70;;;;;;;;;;103450;1297;544715;-73
2023/10/20 06:50:12;;;;;;;45.70;25.50;;;;;;;;;;103827;1291;544836;-74
2023/10/20 06:53:50;;;;;;;50.40;26.70;;;;;;;;;;103467;1296;544825;-72
2023/10/20 06:57:27;;;;;;;48.60;28.90;;;;;;;;;;103937;1289;545063;-73
2023/10/20 07:01:08;;;;;;;71.60;32.20;;;;;;;;;;103768;1292;545980;-76
2023/10/20 07:04:43;;;;;;;54.00;30.50;;;;;;;;;;104226;1286;545694;-73
2023/10/20 07:08:20;;;;;;;50.10;27.60;;;;;;;;;;104206;1286;546591;-73
2023/10/20 07:11:58;;;;;;;49.80;27.20;;;;;;;;;;103808;1289;544929;-75
2023/10/20 07:15:34;;;;;;;50.60;26.80;;;;;;;;;;104580;1287;545402;-73
2023/10/20 07:19:12;;;;;;;45.00;27.10;;;;;;;;;;103866;1288;544747;-73
2023/10/20 07:22:49;;;;;;;50.30;28.20;;;;;;;;;;103714;1290;544728;-73
2023/10/20 07:26:27;;;;;;;44.50;27.80;;;;;;;;;;103789;1292;545010;-73
2023/10/20 07:30:06;;;;;;;47.20;27.00;;;;;;;;;;104145;1285;545488;-74
2023/10/20 07:33:42;;;;;;;44.20;27.20;;;;;;;;;;104319;1283;544863;-73
2023/10/20 07:37:19;;;;;;;46.70;26.50;;;;;;;;;;103699;1292;545421;-77
2023/10/20 07:41:06;;;;;;;42.50;27.60;;;;;;;;;;103550;1291;548152;-74
2023/10/20 07:44:38;;;;;;;49.30;27.20;;;;;;;;;;103593;1292;545206;-76
2023/10/20 07:48:12;;;;;;;50.80;28.20;;;;;;;;;;103794;1289;545858;-82
2023/10/20 07:51:49;;;;;;;41.70;26.70;;;;;;;;;;103846;1292;544904;-73
2023/10/20 07:55:26;;;;;;;39.50;25.10;;;;;;;;;;103672;1292;544800;-73
2023/10/20 07:59:04;;;;;;;44.60;26.10;;;;;;;;;;103764;1293;545642;-71
2023/10/20 08:02:45;;;;;;;52.40;27.90;;;;;;;;;;103784;1291;544765;-74
2023/10/20 08:06:19;;;;;;;46.10;27.10;;;;;;;;;;104123;1289;544877;-73
2023/10/20 08:09:52;;;;;;;46.20;27.30;;;;;;;;;;104025;1290;545712;-73
2023/10/20 08:13:34;;;;;;;51.60;26.70;;;;;;;;;;103858;1290;545324;-73
2023/10/20 08:17:12;;;;;;;45.50;26.40;;;;;;;;;;103823;1293;544778;-74
2023/10/20 08:20:49;;;;;;;40.10;25.40;;;;;;;;;;103995;1289;544748;-78
2023/10/20 08:24:27;;;;;;;43.40;25.50;;;;;;;;;;103802;1289;545019;-74
2023/10/20 08:28:09;;;;;;;41.40;25.90;;;;;;;;;;103547;1291;547998;-74
2023/10/20 08:32:03;;;;;;;49.10;26.70;;;;;;;;;;103686;1294;547848;-73
2023/10/20 08:35:18;;;;;;;44.10;26.10;;;;;;;;;;103600;1293;545794;-72
2023/10/20 08:38:56;;;;;;;43.90;25.30;;;;;;;;;;103922;1289;544948;-73
2023/10/20 08:42:38;;;;;;;43.70;25.50;;;;;;;;;;103795;1291;545593;-74
2023/10/20 08:46:18;;;;;;;46.70;26.00;;;;;;;;;;103767;1291;544875;-76
2023/10/20 08:49:49;;;;;;;44.10;25.40;;;;;;;;;;104744;1283;544451;-74
2023/10/20 08:53:27;;;;;;;44.80;25.60;;;;;;;;;;104089;1288;544775;-73
2023/10/20 08:57:04;;;;;;;42.30;26.00;;;;;;;;;;103739;1291;544876;-76
2023/10/20 09:00:42;;;;;;;42.40;24.90;;;;;;;;;;103735;1293;544872;-75
2023/10/20 09:04:22;;;;;;;40.60;24.20;;;;;;;;;;103834;1291;545160;-74
2023/10/20 09:08:04;;;;;;;37.90;23.60;;;;;;;;;;103398;1295;549296;-85
2023/10/20 09:11:33;;;;;;;46.00;25.40;;;;;;;;;;103846;1289;545106;-76
2023/10/20 09:15:11;;;;;;;41.30;24.60;;;;;;;;;;103883;1292;544937;-73
2023/10/20 09:18:48;;;;;;;42.20;24.80;;;;;;;;;;103808;1292;544945;-75
2023/10/20 09:22:29;;;;;;;40.40;25.20;;;;;;;;;;103800;1292;545286;-74
2023/10/20 09:26:04;;;;;;;46.00;25.40;;;;;;;;;;103815;1290;544935;-74
2023/10/20 09:29:41;;;;;;;40.90;24.20;;;;;;;;;;103799;1288;545307;-73
2023/10/20 09:33:18;;;;;;;40.20;25.10;;;;;;;;;;103847;1294;545804;-73
2023/10/20 09:36:56;;;;;;;48.30;28.20;;;;;;;;;;105937;1285;544944;-74
2023/10/20 09:40:33;;;;;;;44.30;26.40;;;;;;;;;;103903;1290;544912;-72
2023/10/20 09:44:13;;;;;;;43.20;25.00;;;;;;;;;;104160;1286;545122;-72
2023/10/20 09:47:52;;;;;;;39.60;23.90;;;;;;;;;;103730;1291;546011;-81
2023/10/20 09:51:26;;;;;;;37.90;23.30;;;;;;;;;;104568;1282;545499;-72
2023/10/20 09:55:03;;;;;;;40.30;25.60;;;;;;;;;;103927;1289;544813;-73
2023/10/20 09:58:43;;;;;;;38.40;24.20;;;;;;;;;;103724;1295;544911;-77
2023/10/20 10:02:25;;;;;;;38.50;23.60;;;;;;;;;;103743;1291;545662;-72
2023/10/20 10:05:56;;;;;;;38.40;23.50;;;;;;;;;;103991;1289;545453;-73
2023/10/20 10:09:36;;;;;;;36.40;23.00;;;;;;;;;;103782;1289;545155;-73
2023/10/20 10:13:10;;;;;;;35.10;23.00;;;;;;;;;;103773;1295;545037;-73
2023/10/20 10:16:55;;;;;;;34.70;22.50;;;;;;;;;;103758;1292;544963;-72
2023/10/20 10:20:25;;;;;;;32.80;21.50;;;;;;;;;;103679;1293;544923;-88
2023/10/20 10:24:08;;;;;;;31.30;20.70;;;;;;;;;;103732;1292;544981;-82
2023/10/20 10:27:54;;;;;;;31.80;20.60;;;;;;;;;;104086;1290;545860;-84
2023/10/20 10:31:35;;;;;;;36.30;22.40;;;;;;;;;;103974;1286;544816;-87
2023/10/20 10:35:08;;;;;;;36.10;22.30;;;;;;;;;;103687;1289;544786;-73
2023/10/20 10:38:44;;;;;;;34.20;22.20;;;;;;;;;;103752;1291;544746;-72
2023/10/20 10:42:17;;;;;;;34.00;22.20;;;;;;;;;;103552;1289;544833;-77
2023/10/20 10:45:58;;;;;;;36.30;22.80;;;;;;;;;;103733;1290;544812;-76
2023/10/20 10:49:44;;;;;;;34.90;21.30;;;;;;;;;;103566;1291;544820;-84
2023/10/20 10:53:14;;;;;;;34.80;21.90;;;;;;;;;;103802;1292;546444;-72
2023/10/20 10:56:51;;;;;;;37.50;22.80;;;;;;;;;;103740;1293;544784;-73
2023/10/20 11:00:28;;;;;;;33.90;22.00;;;;;;;;;;103759;1292;545436;-74
2023/10/20 11:04:09;;;;;;;32.90;21.90;;;;;;;;;;103810;1289;545481;-76
2023/10/20 11:08:02;;;;;;;34.10;22.20;;;;;;;;;;103737;1290;545504;-73
2023/10/20 11:11:25;;;;;;;34.50;22.00;;;;;;;;;;103820;1288;546037;-75
2023/10/20 11:15:01;;;;;;;33.70;22.10;;;;;;;;;;103688;1291;545017;-73
2023/10/20 11:18:36;;;;;;;38.00;22.40;;;;;;;;;;103745;1292;545056;-78
2023/10/20 11:22:14;;;;;;;36.40;22.70;;;;;;;;;;103695;1292;545010;-80
2023/10/20 11:25:51;;;;;;;37.90;24.50;;;;;;;;;;103711;1292;544826;-72
2023/10/20 11:29:29;;;;;;;36.60;23.60;;;;;;;;;;103680;1292;545072;-85
2023/10/20 11:33:05;;;;;;;36.40;23.60;;;;;;;;;;103832;1294;544810;-76
2023/10/20 11:36:42;;;;;;;40.50;24.60;;;;;;;;;;103724;1292;545111;-74
2023/10/20 11:40:21;;;;;;;40.70;25.30;;;;;;;;;;103726;1289;545661;-78
2023/10/20 11:43:58;;;;;;;47.80;26.90;;;;;;;;;;103757;1289;545026;-73
2023/10/20 11:47:35;;;;;;;40.60;24.80;;;;;;;;;;103700;1295;545614;-73
2023/10/20 11:51:12;;;;;;;43.70;25.40;;;;;;;;;;103657;1292;544962;-80
2023/10/20 11:54:50;;;;;;;40.30;24.90;;;;;;;;;;103890;1289;544850;-72
2023/10/20 11:58:27;;;;;;;49.40;26.50;;;;;;;;;;103480;1298;545645;-74
2023/10/20 12:02:04;;;;;;;47.50;26.80;;;;;;;;;;103752;1290;545101;-74
2023/10/20 12:05:43;;;;;;;46.40;27.30;;;;;;;;;;103982;1289;544935;-72
2023/10/20 12:09:20;;;;;;;53.00;28.60;;;;;;;;;;103704;1295;545102;-82
2023/10/20 12:13:02;;;;;;;50.80;27.90;;;;;;;;;;103668;1288;544914;-72
2023/10/20 12:16:35;;;;;;;53.10;28.80;;;;;;;;;;103676;1289;545185;-73
2023/10/20 12:20:09;;;;;;;49.80;27.70;;;;;;;;;;103754;1291;545707;-81
2023/10/20 12:23:52;;;;;;;51.50;28.60;;;;;;;;;;103605;1289;545563;-73
2023/10/20 12:27:31;;;;;;;56.20;27.50;;;;;;;;;;103754;1291;545591;-82
2023/10/20 12:31:08;;;;;;;53.00;28.30;;;;;;;;;;103728;1289;546058;-79
2023/10/20 12:34:45;;;;;;;49.90;27.40;;;;;;;;;;103773;1289;545077;-85
2023/10/20 12:38:23;;;;;;;49.10;28.80;;;;;;;;;;103655;1290;544983;-79
2023/10/20 12:42:03;;;;;;;48.10;27.60;;;;;;;;;;103705;1292;544965;-77
2023/10/20 12:45:57;;;;;;;46.60;26.90;;;;;;;;;;104055;1288;548093;-81
2023/10/20 12:49:17;;;;;;;47.40;26.60;;;;;;;;;;103741;1291;545467;-81
2023/10/20 12:52:52;;;;;;;45.30;27.30;;;;;;;;;;103786;1295;544960;-79
2023/10/20 12:56:29;;;;;;;50.60;29.00;;;;;;;;;;103732;1289;545524;-80
2023/10/20 13:00:13;;;;;;;47.60;27.50;;;;;;;;;;103621;1291;547902;-78
2023/10/20 13:03:45;;;;;;;44.60;26.90;;;;;;;;;;103723;1301;544768;-73
2023/10/20 13:07:24;;;;;;;45.10;26.40;;;;;;;;;;103968;1288;544811;-73
2023/10/20 13:10:59;;;;;;;46.70;27.50;;;;;;;;;;103703;1291;545982;-79
2023/10/20 13:14:37;;;;;;;46.30;27.20;;;;;;;;;;103753;1291;544994;-78
2023/10/20 13:18:15;;;;;;;42.50;25.80;;;;;;;;;;103942;1289;545544;-73
2023/10/20 13:22:12;;;;;;;44.00;27.20;;;;;;;;;;103389;1297;548010;-86
2023/10/20 13:25:30;;;;;;;42.70;26.10;;;;;;;;;;104047;1289;544965;-73
2023/10/20 13:29:07;;;;;;;42.00;25.60;;;;;;;;;;103747;1291;544791;-78
2023/10/20 13:32:44;;;;;;;41.00;24.80;;;;;;;;;;103877;1288;545501;-74
2023/10/20 13:36:22;;;;;;;41.50;25.40;;;;;;;;;;103727;1296;546270;-74
2023/10/20 13:39:59;;;;;;;41.70;26.30;;;;;;;;;;104128;1286;545390;-77
2023/10/20 13:43:37;;;;;;;44.40;25.50;;;;;;;;;;103784;1290;545509;-75
2023/10/20 13:47:14;;;;;;;40.90;24.70;;;;;;;;;;103782;1295;544728;-74
2023/10/20 13:50:52;;;;;;;40.80;25.20;;;;;;;;;;103680;1291;544812;-74
2023/10/20 13:54:29;;;;;;;40.50;25.30;;;;;;;;;;103689;1293;545016;-85
2023/10/20 13:58:07;;;;;;;42.00;25.70;;;;;;;;;;103575;1291;545052;-77
2023/10/20 14:01:44;;;;;;;38.60;25.30;;;;;;;;;;103740;1292;545487;-79
2023/10/20 14:05:23;;;;;;;40.60;25.90;;;;;;;;;;103923;1290;545686;-73
2023/10/20 14:08:55;;;;;;;39.20;25.40;;;;;;;;;;103811;1288;544975;-79
2023/10/20 14:12:39;;;;;;;36.90;24.90;;;;;;;;;;103758;1289;546445;-73
2023/10/20 14:16:12;;;;;;;40.20;24.70;;;;;;;;;;103852;1292;545443;-72
2023/10/20 14:19:54;;;;;;;43.10;26.30;;;;;;;;;;103878;1292;545504;-72
2023/10/20 14:23:32;;;;;;;40.10;25.00;;;;;;;;;;103700;1292;545070;-83
2023/10/20 14:27:10;;;;;;;42.00;25.70;;;;;;;;;;104084;1288;545734;-74
2023/10/20 14:30:54;;;;;;;40.50;26.60;;;;;;;;;;103780;1293;545056;-73
2023/10/20 14:34:23;;;;;;;42.30;26.20;;;;;;;;;;103642;1289;545951;-73
2023/10/20 14:38:02;;;;;;;39.10;25.70;;;;;;;;;;103717;1290;545015;-73
2023/10/20 14:41:40;;;;;;;39.50;25.80;;;;;;;;;;103774;1292;545070;-73
2023/10/20 14:45:17;;;;;;;44.70;27.90;;;;;;;;;;103766;1289;544872;-80
2023/10/20 14:48:54;;;;;;;42.60;26.70;;;;;;;;;;103475;1295;545544;-72
2023/10/20 14:52:32;;;;;;;41.40;26.80;;;;;;;;;;103733;1289;545449;-73
2023/10/20 14:56:06;;;;;;;41.50;27.80;;;;;;;;;;103781;1289;544746;-74
2023/10/20 14:59:47;;;;;;;46.40;29.60;;;;;;;;;;103707;1290;545057;-73
2023/10/20 15:03:25;;;;;;;44.10;27.50;;;;;;;;;;103732;1292;545016;-79
2023/10/20 15:07:02;;;;;;;48.40;28.00;;;;;;;;;;103721;1291;544936;-76
2023/10/20 15:10:36;;;;;;;42.10;27.40;;;;;;;;;;103795;1295;544951;-77
2023/10/20 15:14:19;;;;;;;45.20;28.60;;;;;;;;;;103768;1293;544728;-74
2023/10/20 15:17:56;;;;;;;51.00;29.40;;;;;;;;;;103872;1288;546803;-73
2023/10/20 15:21:33;;;;;;;47.60;29.60;;;;;;;;;;103849;1292;544843;-77
2023/10/20 15:25:11;;;;;;;46.80;28.60;;;;;;;;;;103776;1292;545512;-78
2023/10/20 15:28:49;;;;;;;43.80;29.40;;;;;;;;;;103756;1291;545342;-73
2023/10/20 15:32:27;;;;;;;60.50;31.20;;;;;;;;;;103634;1295;544808;-72
2023/10/20 15:36:02;;;;;;;49.40;29.60;;;;;;;;;;103926;1289;545246;-72
2023/10/20 15:39:45;;;;;;;44.30;29.10;;;;;;;;;;103745;1292;544734;-73
2023/10/20 15:43:23;;;;;;;46.50;29.70;;;;;;;;;;103653;1290;546076;-74
2023/10/20 15:47:01;;;;;;;47.00;27.90;;;;;;;;;;103745;1290;545652;-72
2023/10/20 15:50:41;;;;;;;38.70;27.60;;;;;;;;;;103947;1288;544640;-75
2023/10/20 15:54:17;;;;;;;48.20;29.40;;;;;;;;;;104172;1284;545182;-73
2023/10/20 15:57:53;;;;;;;43.60;27.60;;;;;;;;;;103814;1291;544963;-74
2023/10/20 16:01:30;;;;;;;42.10;27.30;;;;;;;;;;104057;1289;545090;-73
2023/10/20 16:05:08;;;;;;;40.40;27.30;;;;;;;;;;103770;1292;545396;-78
2023/10/20 16:08:45;;;;;;;44.40;29.40;;;;;;;;;;103764;1291;545196;-73
2023/10/20 16:12:23;;;;;;;45.10;32.00;;;;;;;;;;103874;1292;545155;-73
2023/10/20 16:16:00;;;;;;;49.90;32.80;;;;;;;;;;103768;1292;545891;-73
2023/10/20 16:19:39;;;;;;;47.60;31.30;;;;;;;;;;104110;1292;544997;-73
2023/10/20 16:23:15;;;;;;;46.60;31.00;;;;;;;;;;103722;1289;545316;-73
2023/10/20 16:26:52;;;;;;;48.20;30.60;;;;;;;;;;103887;1288;545050;-73
2023/10/20 16:30:30;;;;;;;51.40;32.80;;;;;;;;;;103918;1291;544992;-73
2023/10/20 16:34:07;;;;;;;50.80;32.10;;;;;;;;;;103862;1289;544950;-73
2023/10/20 16:37:45;;;;;;;42.10;30.50;;;;;;;;;;103709;1289;544834;-73
2023/10/20 16:41:22;;;;;;;45.40;31.70;;;;;;;;;;104532;1283;545392;-73
2023/10/20 16:45:06;;;;;;;52.50;33.60;;;;;;;;;;103704;1289;544848;-73
2023/10/20 16:48:37;;;;;;;52.30;33.90;;;;;;;;;;104100;1286;544910;-72
2023/10/20 16:52:15;;;;;;;47.30;33.90;;;;;;;;;;103664;1292;544979;-72
2023/10/20 16:55:59;;;;;;;55.10;36.70;;;;;;;;;;103561;1291;548479;-77
2023/10/20 16:59:49;;;;;;;58.00;37.80;;;;;;;;;;103316;1295;548586;-73
2023/10/20 17:03:07;;;;;;;59.40;39.20;;;;;;;;;;103873;1292;546233;-73
2023/10/20 17:06:45;;;;;;;56.70;36.90;;;;;;;;;;103679;1292;545254;-74
2023/10/20 17:10:22;;;;;;;51.40;34.00;;;;;;;;;;104157;1286;545004;-74
2023/10/20 17:13:55;;;;;;;57.70;38.00;;;;;;;;;;103918;1289;545397;-83
2023/10/20 17:17:58;;;;;;;59.80;39.10;;;;;;;;;;103760;1292;548011;-73
2023/10/20 17:21:16;;;;;;;62.60;40.40;;;;;;;;;;103682;1291;544794;-82
2023/10/20 17:24:54;;;;;;;61.30;37.80;;;;;;;;;;103676;1292;545928;-75
2023/10/20 17:28:27;;;;;;;66.20;42.90;;;;;;;;;;103932;1292;545454;-80
2023/10/20 17:32:11;;;;;;;66.40;42.80;;;;;;;;;;103890;1288;544879;-75
2023/10/20 17:35:42;;;;;;;68.90;43.40;;;;;;;;;;104398;1282;544847;-73
2023/10/20 17:39:23;;;;;;;63.20;41.80;;;;;;;;;;103830;1291;545483;-84
2023/10/20 17:43:02;;;;;;;60.40;39.60;;;;;;;;;;103807;1289;545766;-73
2023/10/20 17:46:38;;;;;;;60.70;40.20;;;;;;;;;;103907;1289;545689;-77
2023/10/20 17:50:16;;;;;;;59.00;37.20;;;;;;;;;;103864;1291;545160;-75
2023/10/20 17:53:53;;;;;;;61.50;39.20;;;;;;;;;;103453;1295;544990;-74
2023/10/20 17:57:31;;;;;;;62.20;41.40;;;;;;;;;;103713;1294;544922;-73
2023/10/20 18:01:10;;;;;;;66.70;41.30;;;;;;;;;;103601;1291;544961;-73
2023/10/20 18:04:46;;;;;;;61.40;41.10;;;;;;;;;;103695;1291;545079;-74
2023/10/20 18:08:23;;;;;;;66.30;43.60;;;;;;;;;;103930;1290;545396;-73
2023/10/20 18:12:01;;;;;;;66.80;45.40;;;;;;;;;;103998;1289;544718;-73
2023/10/20 18:15:39;;;;;;;79.50;48.90;;;;;;;;;;103818;1289;545107;-74
2023/10/20 18:19:12;;;;;;;65.10;43.30;;;;;;;;;;103830;1290;544983;-74
2023/10/20 18:22:53;;;;;;;74.30;48.90;;;;;;;;;;103816;1292;545728;-77
2023/10/20 18:26:30;;;;;;;65.60;45.10;;;;;;;;;;103703;1292;545633;-74
2023/10/20 18:30:08;;;;;;;89.90;55.30;;;;;;;;;;103689;1291;545535;-75
2023/10/20 18:34:06;;;;;;;87.40;54.50;;;;;;;;;;103659;1293;548028;-80
2023/10/20 18:37:23;;;;;;;96.70;56.90;;;;;;;;;;103609;1291;545198;-75
2023/10/20 18:41:01;;;;;;;92.50;58.00;;;;;;;;;;104203;1286;544800;-73
2023/10/20 18:44:39;;;;;;;99.10;60.10;;;;;;;;;;103735;1292;545083;-82
2023/10/20 18:48:15;;;;;;;90.80;55.90;;;;;;;;;;103845;1289;544738;-73
2023/10/20 18:51:52;;;;;;;108.60;61.30;;;;;;;;;;103701;1291;545057;-74
2023/10/20 18:55:30;;;;;;;99.60;61.10;;;;;;;;;;103873;1293;545231;-73
2023/10/20 18:59:08;;;;;;;78.90;48.90;;;;;;;;;;103737;1296;545954;-76
2023/10/20 19:02:49;;;;;;;93.30;59.80;;;;;;;;;;103839;1292;545053;-73
2023/10/20 19:06:25;;;;;;;88.10;58.50;;;;;;;;;;103709;1292;544856;-79
2023/10/20 19:10:00;;;;;;;75.60;51.40;;;;;;;;;;104200;1283;544899;-73
2023/10/20 19:13:37;;;;;;;73.50;45.80;;;;;;;;;;103742;1289;544989;-73
2023/10/20 19:17:11;;;;;;;75.40;47.60;;;;;;;;;;104322;1288;545318;-73
2023/10/20 19:21:10;;;;;;;73.50;47.90;;;;;;;;;;103778;1288;547756;-81
2023/10/20 19:24:30;;;;;;;70.90;45.40;;;;;;;;;;103947;1288;545580;-72
2023/10/20 19:28:07;;;;;;;64.90;44.30;;;;;;;;;;104710;1289;545585;-73
2023/10/20 19:31:45;;;;;;;67.30;45.70;;;;;;;;;;103746;1290;545388;-73
2023/10/20 19:35:22;;;;;;;55.80;39.90;;;;;;;;;;103840;1292;545504;-74
2023/10/20 19:38:59;;;;;;;66.00;41.90;;;;;;;;;;103780;1289;545719;-73
2023/10/20 19:42:37;;;;;;;64.30;41.50;;;;;;;;;;103902;1288;544802;-76
2023/10/20 19:46:10;;;;;;;76.60;44.30;;;;;;;;;;104003;1292;544822;-73
2023/10/20 19:49:56;;;;;;;72.20;46.70;;;;;;;;;;104085;1287;544981;-73
2023/10/20 19:53:31;;;;;;;70.60;43.50;;;;;;;;;;103635;1295;545156;-73
2023/10/20 19:57:08;;;;;;;63.00;40.20;;;;;;;;;;103809;1292;544890;-74
2023/10/20 20:00:42;;;;;;;60.40;40.50;;;;;;;;;;103931;1289;545380;-73
2023/10/20 20:04:24;;;;;;;57.50;38.50;;;;;;;;;;103984;1292;545476;-74
2023/10/20 20:08:01;;;;;;;73.10;37.30;;;;;;;;;;103720;1290;545729;-73
2023/10/20 20:11:38;;;;;;;50.80;34.20;;;;;;;;;;103816;1292;544986;-74
2023/10/20 20:15:16;;;;;;;55.90;36.60;;;;;;;;;;103701;1298;546707;-80
2023/10/20 20:18:49;;;;;;;49.30;34.00;;;;;;;;;;104687;1282;545492;-73
2023/10/20 20:22:31;;;;;;;52.20;35.30;;;;;;;;;;104590;1283;544745;-76
2023/10/20 20:26:08;;;;;;;54.60;36.60;;;;;;;;;;103726;1292;544821;-76
2023/10/20 20:29:45;;;;;;;58.20;37.10;;;;;;;;;;104088;1287;546240;-76
2023/10/20 20:33:23;;;;;;;55.90;34.80;;;;;;;;;;103743;1292;544777;-79
2023/10/20 20:37:00;;;;;;;46.30;32.00;;;;;;;;;;103924;1292;545539;-78
2023/10/20 20:40:35;;;;;;;43.30;28.50;;;;;;;;;;103754;1289;544851;-76
2023/10/20 20:44:21;;;;;;;46.90;29.00;;;;;;;;;;103763;1292;544860;-79
2023/10/20 20:47:56;;;;;;;39.40;27.20;;;;;;;;;;103707;1291;544967;-81